createdAt,value
2017-07-28T00:00:33.688Z,1001.01
2017-07-28T00:01:45.946Z,1000.97
2017-07-28T00:02:58.503Z,1000.97
2017-07-28T00:04:11.063Z,1000.98
2017-07-28T00:05:23.622Z,1000.98
2017-07-28T00:06:36.443Z,1000.98
2017-07-28T00:07:49.036Z,1000.98
2017-07-28T00:09:01.297Z,1000.99
2017-07-28T00:10:13.901Z,1000.97
2017-07-28T00:11:26.175Z,1000.94
2017-07-28T00:12:38.439Z,1000.94
2017-07-28T00:13:51.084Z,1000.96
2017-07-28T00:15:03.651Z,1000.94
2017-07-28T00:16:15.965Z,1000.93
2017-07-28T00:17:28.568Z,1000.99
2017-07-28T00:18:41.150Z,1001.07
2017-07-28T00:19:53.474Z,1001.06
2017-07-28T00:21:05.744Z,1001.11
2017-07-28T00:22:18.032Z,1001.08
2017-07-28T00:23:30.616Z,1001.06
2017-07-28T00:24:43.209Z,1001.07
2017-07-28T00:25:55.551Z,1001.05
2017-07-28T00:27:07.872Z,1001.08
2017-07-28T00:28:20.448Z,1001.07
2017-07-28T00:29:32.715Z,1001.09
2017-07-28T00:30:44.946Z,1001.12
2017-07-28T00:31:57.292Z,1001.03
2017-07-28T00:33:09.587Z,1001.02
2017-07-28T00:34:21.890Z,1001.01
2017-07-28T00:35:34.469Z,1001.02
2017-07-28T00:36:46.971Z,1001.07
2017-07-28T00:37:59.585Z,1001.1
2017-07-28T00:39:11.874Z,1001.1
2017-07-28T00:40:24.158Z,1001.07
2017-07-28T00:41:36.449Z,1001.06
2017-07-28T00:42:49.072Z,1001.01
2017-07-28T00:44:01.664Z,1001
2017-07-28T00:45:13.920Z,1001.02
2017-07-28T00:46:26.486Z,1001
2017-07-28T00:47:38.489Z,1000.94
2017-07-28T00:48:51.100Z,1000.99
2017-07-28T00:50:03.726Z,1001.03
2017-07-28T00:51:15.983Z,1001.03
2017-07-28T00:52:28.562Z,1001.05
2017-07-28T00:53:40.843Z,1001.12
2017-07-28T00:54:53.510Z,1001.17
2017-07-28T00:56:05.528Z,1001.21
2017-07-28T00:57:18.112Z,1001.2
2017-07-28T00:58:30.715Z,1001.21
2017-07-28T00:59:42.641Z,1001.19
2017-07-28T01:00:55.533Z,1001.17
2017-07-28T01:02:08.092Z,1001.13
2017-07-28T01:03:20.380Z,1001.13
2017-07-28T01:04:32.620Z,1001.07
2017-07-28T01:05:44.947Z,1001.07
2017-07-28T01:06:57.516Z,1001.04
2017-07-28T01:08:09.474Z,1001.02
2017-07-28T01:09:21.815Z,1001.01
2017-07-28T01:10:33.768Z,1001.07
2017-07-28T01:11:46.089Z,1001.06
2017-07-28T01:12:58.421Z,1001.08
2017-07-28T01:14:10.999Z,1001.05
2017-07-28T01:15:23.583Z,1001.12
2017-07-28T01:16:35.855Z,1001.1
2017-07-28T01:17:48.417Z,1001.06
2017-07-28T01:19:01.027Z,1001.05
2017-07-28T01:20:13.293Z,1001.01
2017-07-28T01:21:25.314Z,1000.98
2017-07-28T01:22:38.159Z,1000.91
2017-07-28T01:23:50.436Z,1000.98
2017-07-28T01:25:02.753Z,1000.99
2017-07-28T01:26:14.999Z,1000.97
2017-07-28T01:27:27.329Z,1001.03
2017-07-28T01:28:39.641Z,1001.03
2017-07-28T01:29:52.238Z,1001.01
2017-07-28T01:31:04.867Z,1001.01
2017-07-28T01:32:17.157Z,1000.99
2017-07-28T01:33:29.723Z,1000.95
2017-07-28T01:34:41.975Z,1000.97
2017-07-28T01:35:54.275Z,1000.97
2017-07-28T01:37:06.536Z,1000.96
2017-07-28T01:38:18.887Z,1001
2017-07-28T01:39:31.490Z,1001
2017-07-28T01:40:43.500Z,1001.01
2017-07-28T01:41:55.744Z,1001.03
2017-07-28T01:43:08.026Z,1001.07
2017-07-28T01:44:20.660Z,1001.08
2017-07-28T01:45:33.156Z,1001.12
2017-07-28T01:46:45.760Z,1001.19
2017-07-28T01:47:58.040Z,1001.18
2017-07-28T01:49:10.285Z,1001.15
2017-07-28T01:50:22.585Z,1001.12
2017-07-28T01:51:34.839Z,1001.14
2017-07-28T01:52:47.474Z,1001.19
2017-07-28T01:54:00.014Z,1001.15
2017-07-28T01:55:12.323Z,1001.13
2017-07-28T01:56:24.935Z,1001.13
2017-07-28T01:57:37.526Z,1001.12
2017-07-28T01:58:50.072Z,1001.16
2017-07-28T02:00:02.684Z,1001.17
2017-07-28T02:01:14.614Z,1001.14
2017-07-28T02:02:26.860Z,1001.06
2017-07-28T02:03:39.151Z,1001.12
2017-07-28T02:04:51.733Z,1001.1
2017-07-28T02:06:04.025Z,1001.12
2017-07-28T02:07:16.308Z,1001.11
2017-07-28T02:08:28.607Z,1001.11
2017-07-28T02:09:40.850Z,1001.09
2017-07-28T02:10:53.445Z,1001.06
2017-07-28T02:12:06.065Z,1001.06
2017-07-28T02:13:18.380Z,1001.05
2017-07-28T02:14:30.964Z,1001.05
2017-07-28T02:15:43.564Z,1001.01
2017-07-28T02:16:56.177Z,1000.99
2017-07-28T02:18:08.739Z,1001.01
2017-07-28T02:19:21.318Z,1001.03
2017-07-28T02:20:33.880Z,1001.04
2017-07-28T02:21:45.875Z,1001.1
2017-07-28T02:22:58.167Z,1001.14
2017-07-28T02:24:10.776Z,1001.27
2017-07-28T02:25:23.360Z,1001.2
2017-07-28T02:26:35.930Z,1001.19
2017-07-28T02:27:48.841Z,1001.22
2017-07-28T02:29:01.073Z,1001.24
2017-07-28T02:30:13.680Z,1001.29
2017-07-28T02:31:26.356Z,1001.27
2017-07-28T02:32:38.340Z,1001.23
2017-07-28T02:33:50.899Z,1001.18
2017-07-28T02:35:03.214Z,1001.19
2017-07-28T02:36:15.810Z,1001.16
2017-07-28T02:37:28.467Z,1001.17
2017-07-28T02:38:41.038Z,1001.19
2017-07-28T02:39:53.654Z,1001.23
2017-07-28T02:41:06.211Z,1001.19
2017-07-28T02:42:18.815Z,1001.2
2017-07-28T02:43:31.149Z,1001.24
2017-07-28T02:44:43.730Z,1001.22
2017-07-28T02:45:56.028Z,1001.26
2017-07-28T02:47:08.623Z,1001.3
2017-07-28T02:48:21.268Z,1001.29
2017-07-28T02:49:34.166Z,1001.23
2017-07-28T02:50:46.784Z,1001.25
2017-07-28T02:51:59.358Z,1001.28
2017-07-28T02:53:11.928Z,1001.29
2017-07-28T02:54:24.228Z,1001.31
2017-07-28T02:55:36.795Z,1001.31
2017-07-28T02:56:48.765Z,1001.32
2017-07-28T02:58:01.392Z,1001.34
2017-07-28T02:59:13.907Z,1001.34
2017-07-28T03:00:26.757Z,1001.3
2017-07-28T03:01:39.378Z,1001.29
2017-07-28T03:02:51.944Z,1001.31
2017-07-28T03:04:04.533Z,1001.35
2017-07-28T03:05:16.798Z,1001.38
2017-07-28T03:06:29.433Z,1001.32
2017-07-28T03:07:41.695Z,1001.33
2017-07-28T03:08:54.253Z,1001.34
2017-07-28T03:10:06.519Z,1001.29
2017-07-28T03:11:18.195Z,1001.31
2017-07-28T03:12:30.444Z,1001.36
2017-07-28T03:13:43.047Z,1001.33
2017-07-28T03:14:55.666Z,1001.38
2017-07-28T03:16:07.705Z,1001.38
2017-07-28T03:17:20.232Z,1001.4
2017-07-28T03:18:32.874Z,1001.4
2017-07-28T03:19:45.464Z,1001.43
2017-07-28T03:20:58.058Z,1001.41
2017-07-28T03:22:10.622Z,1001.34
2017-07-28T03:23:22.862Z,1001.38
2017-07-28T03:24:35.199Z,1001.37
2017-07-28T03:25:47.520Z,1001.39
2017-07-28T03:27:00.152Z,1001.38
2017-07-28T03:28:12.758Z,1001.37
2017-07-28T03:29:25.334Z,1001.4
2017-07-28T03:30:37.319Z,1001.45
2017-07-28T03:31:49.615Z,1001.48
2017-07-28T03:33:02.424Z,1001.54
2017-07-28T03:34:14.388Z,1001.59
2017-07-28T03:35:26.660Z,1001.62
2017-07-28T03:36:39.232Z,1001.67
2017-07-28T03:37:51.804Z,1001.65
2017-07-28T03:39:04.096Z,1001.64
2017-07-28T03:40:16.679Z,1001.64
2017-07-28T03:41:28.963Z,1001.64
2017-07-28T03:42:41.264Z,1001.66
2017-07-28T03:43:53.870Z,1001.65
2017-07-28T03:45:06.513Z,1001.68
2017-07-28T03:46:19.084Z,1001.64
2017-07-28T03:47:31.695Z,1001.64
2017-07-28T03:48:43.982Z,1001.67
2017-07-28T03:49:56.299Z,1001.64
2017-07-28T03:51:08.857Z,1001.61
2017-07-28T03:52:21.180Z,1001.61
2017-07-28T03:53:33.737Z,1001.67
2017-07-28T03:54:46.352Z,1001.7
2017-07-28T03:55:58.928Z,1001.68
2017-07-28T03:57:11.508Z,1001.71
2017-07-28T03:58:24.119Z,1001.74
2017-07-28T03:59:36.735Z,1001.73
2017-07-28T04:00:49.374Z,1001.81
2017-07-28T04:02:01.944Z,1001.81
2017-07-28T04:03:14.549Z,1001.79
2017-07-28T04:04:26.829Z,1001.75
2017-07-28T04:05:39.415Z,1001.75
2017-07-28T04:06:52.065Z,1001.76
2017-07-28T04:08:04.380Z,1001.76
2017-07-28T04:09:16.662Z,1001.76
2017-07-28T04:10:29.209Z,1001.79
2017-07-28T04:11:41.779Z,1001.83
2017-07-28T04:12:54.358Z,1001.83
2017-07-28T04:14:06.600Z,1001.82
2017-07-28T04:15:18.900Z,1001.81
2017-07-28T04:16:31.482Z,1001.78
2017-07-28T04:17:43.777Z,1001.81
2017-07-28T04:18:56.340Z,1001.86
2017-07-28T04:20:08.883Z,1001.91
2017-07-28T04:21:21.380Z,1001.92
2017-07-28T04:22:33.952Z,1001.91
2017-07-28T04:23:46.508Z,1001.88
2017-07-28T04:24:58.807Z,1001.95
2017-07-28T04:26:11.412Z,1001.96
2017-07-28T04:27:23.683Z,1001.97
2017-07-28T04:28:36.248Z,1001.98
2017-07-28T04:29:48.817Z,1001.99
2017-07-28T04:31:01.459Z,1002.05
2017-07-28T04:32:14.074Z,1002.01
2017-07-28T04:33:26.640Z,1002.1
2017-07-28T04:34:38.934Z,1002.07
2017-07-28T04:35:51.499Z,1002.17
2017-07-28T04:37:04.068Z,1002.18
2017-07-28T04:38:16.874Z,1002.24
2017-07-28T04:39:29.154Z,1002.35
2017-07-28T04:40:41.438Z,1002.3
2017-07-28T04:41:54.042Z,1002.31
2017-07-28T04:43:06.606Z,1002.32
2017-07-28T04:44:19.175Z,1002.32
2017-07-28T04:45:31.826Z,1002.28
2017-07-28T04:46:44.445Z,1002.23
2017-07-28T04:47:57.050Z,1002.2
2017-07-28T04:49:09.016Z,1002.22
2017-07-28T04:50:21.317Z,1002.24
2017-07-28T04:51:33.577Z,1002.23
2017-07-28T04:52:45.580Z,1002.22
2017-07-28T04:53:57.920Z,1002.21
2017-07-28T04:55:09.565Z,1002.2
2017-07-28T04:56:21.878Z,1002.19
2017-07-28T04:57:34.209Z,1002.16
2017-07-28T04:58:46.758Z,1002.17
2017-07-28T04:59:59.050Z,1002.15
2017-07-28T05:01:11.311Z,1002.2
2017-07-28T05:02:23.619Z,1002.18
2017-07-28T05:03:36.227Z,1002.26
2017-07-28T05:04:48.500Z,1002.25
2017-07-28T05:06:01.114Z,1002.23
2017-07-28T05:07:13.752Z,1002.24
2017-07-28T05:08:26.344Z,1002.23
2017-07-28T05:09:38.919Z,1002.25
2017-07-28T05:10:51.798Z,1002.21
2017-07-28T05:12:04.496Z,1002.23
2017-07-28T05:13:16.782Z,1002.26
2017-07-28T05:14:29.323Z,1002.25
2017-07-28T05:15:41.960Z,1002.27
2017-07-28T05:16:54.540Z,1002.28
2017-07-28T05:18:06.835Z,1002.34
2017-07-28T05:19:19.117Z,1002.32
2017-07-28T05:20:31.660Z,1002.36
2017-07-28T05:21:44.456Z,1002.35
2017-07-28T05:22:56.491Z,1002.36
2017-07-28T05:24:09.075Z,1002.36
2017-07-28T05:25:21.036Z,1002.36
2017-07-28T05:26:33.351Z,1002.35
2017-07-28T05:27:45.885Z,1002.39
2017-07-28T05:28:58.468Z,1002.41
2017-07-28T05:30:11.025Z,1002.45
2017-07-28T05:31:23.629Z,1002.47
2017-07-28T05:32:36.306Z,1002.49
2017-07-28T05:33:48.902Z,1002.54
2017-07-28T05:35:01.566Z,1002.53
2017-07-28T05:36:13.602Z,1002.56
2017-07-28T05:37:26.204Z,1002.6
2017-07-28T05:38:38.830Z,1002.59
2017-07-28T05:39:51.432Z,1002.62
2017-07-28T05:41:03.977Z,1002.6
2017-07-28T05:42:16.594Z,1002.61
2017-07-28T05:43:29.102Z,1002.61
2017-07-28T05:44:41.686Z,1002.65
2017-07-28T05:45:54.318Z,1002.63
2017-07-28T05:47:06.567Z,1002.66
2017-07-28T05:48:19.170Z,1002.69
2017-07-28T05:49:31.789Z,1002.69
2017-07-28T05:50:44.051Z,1002.73
2017-07-28T05:51:56.599Z,1002.72
2017-07-28T05:53:09.241Z,1002.75
2017-07-28T05:54:21.841Z,1002.75
2017-07-28T05:55:34.424Z,1002.7
2017-07-28T05:56:47.017Z,1002.77
2017-07-28T05:57:59.034Z,1002.81
2017-07-28T05:59:11.047Z,1002.85
2017-07-28T06:00:23.626Z,1002.83
2017-07-28T06:01:35.599Z,1002.88
2017-07-28T06:02:48.203Z,1002.85
2017-07-28T06:04:00.815Z,1002.89
2017-07-28T06:05:13.407Z,1002.88
2017-07-28T06:06:25.681Z,1002.91
2017-07-28T06:07:38.262Z,1002.89
2017-07-28T06:08:50.844Z,1002.92
2017-07-28T06:10:03.123Z,1002.86
2017-07-28T06:11:15.726Z,1002.82
2017-07-28T06:12:28.336Z,1002.88
2017-07-28T06:13:40.635Z,1002.88
2017-07-28T06:14:52.905Z,1002.89
2017-07-28T06:16:05.217Z,1002.95
2017-07-28T06:17:17.787Z,1002.92
2017-07-28T06:18:30.015Z,1002.95
2017-07-28T06:19:42.586Z,1003
2017-07-28T06:20:54.967Z,1002.98
2017-07-28T06:22:07.220Z,1002.99
2017-07-28T06:23:18.876Z,1003.01
2017-07-28T06:24:31.137Z,1002.97
2017-07-28T06:25:43.788Z,1003.08
2017-07-28T06:26:56.378Z,1003.14
2017-07-28T06:28:08.925Z,1003.14
2017-07-28T06:29:21.151Z,1003.19
2017-07-28T06:30:33.098Z,1003.14
2017-07-28T06:31:45.414Z,1003.15
2017-07-28T06:32:57.377Z,1003.16
2017-07-28T06:34:10.009Z,1003.25
2017-07-28T06:35:22.500Z,1003.24
2017-07-28T06:36:34.472Z,1003.45
2017-07-28T06:37:46.999Z,1003.65
2017-07-28T06:38:59.244Z,1003.68
2017-07-28T06:40:11.928Z,1003.8
2017-07-28T06:41:24.532Z,1003.86
2017-07-28T06:42:36.870Z,1003.91
2017-07-28T06:43:49.408Z,1003.84
2017-07-28T06:45:02.019Z,1003.81
2017-07-28T06:46:14.345Z,1003.81
2017-07-28T06:47:26.914Z,1003.71
2017-07-28T06:48:39.187Z,1003.72
2017-07-28T06:49:51.778Z,1003.72
2017-07-28T06:51:04.304Z,1003.73
2017-07-28T06:52:16.894Z,1003.78
2017-07-28T06:53:29.179Z,1003.8
2017-07-28T06:54:41.771Z,1003.78
2017-07-28T06:55:54.372Z,1003.76
2017-07-28T06:57:06.366Z,1003.81
2017-07-28T06:58:18.987Z,1003.88
2017-07-28T06:59:31.865Z,1003.89
2017-07-28T07:00:44.098Z,1003.93
2017-07-28T07:01:56.697Z,1003.96
2017-07-28T07:03:08.714Z,1003.9
2017-07-28T07:04:21.014Z,1003.94
2017-07-28T07:05:33.324Z,1003.92
2017-07-28T07:06:45.626Z,1003.92
2017-07-28T07:07:57.576Z,1003.78
2017-07-28T07:09:10.218Z,1003.69
2017-07-28T07:10:22.845Z,1003.63
2017-07-28T07:11:35.501Z,1003.61
2017-07-28T07:12:47.861Z,1003.67
2017-07-28T07:13:59.897Z,1003.69
2017-07-28T07:15:12.550Z,1003.65
2017-07-28T07:16:24.833Z,1003.67
2017-07-28T07:17:37.421Z,1003.61
2017-07-28T07:18:50.028Z,1003.65
2017-07-28T07:20:01.965Z,1003.63
2017-07-28T07:21:14.253Z,1003.6
2017-07-28T07:22:26.835Z,1003.61
2017-07-28T07:23:39.114Z,1003.54
2017-07-28T07:24:51.726Z,1003.54
2017-07-28T07:26:04.284Z,1003.6
2017-07-28T07:27:16.904Z,1003.63
2017-07-28T07:28:29.538Z,1003.68
2017-07-28T07:29:42.115Z,1003.62
2017-07-28T07:30:54.738Z,1003.65
2017-07-28T07:32:07.341Z,1003.68
2017-07-28T07:33:19.646Z,1003.69
2017-07-28T07:34:31.918Z,1003.7
2017-07-28T07:35:44.241Z,1003.68
2017-07-28T07:36:56.809Z,1003.65
2017-07-28T07:38:09.398Z,1003.7
2017-07-28T07:39:21.736Z,1003.69
2017-07-28T07:40:34.296Z,1003.73
2017-07-28T07:41:46.602Z,1003.84
2017-07-28T07:42:58.651Z,1003.79
2017-07-28T07:44:10.974Z,1003.86
2017-07-28T07:45:22.987Z,1003.82
2017-07-28T07:46:35.591Z,1003.83
2017-07-28T07:47:48.259Z,1003.85
2017-07-28T07:49:00.496Z,1003.83
2017-07-28T07:50:12.758Z,1003.88
2017-07-28T07:51:25.063Z,1003.78
2017-07-28T07:52:37.338Z,1003.81
2017-07-28T07:53:49.602Z,1003.73
2017-07-28T07:55:02.217Z,1003.83
2017-07-28T07:56:14.838Z,1003.85
2017-07-28T07:57:27.445Z,1003.81
2017-07-28T07:58:39.735Z,1003.87
2017-07-28T07:59:52.035Z,1003.91
2017-07-28T08:01:04.307Z,1003.91
2017-07-28T08:02:16.942Z,1004
2017-07-28T08:03:29.544Z,1003.88
2017-07-28T08:04:41.566Z,1003.9
2017-07-28T08:05:54.198Z,1003.93
2017-07-28T08:07:06.793Z,1003.91
2017-07-28T08:08:19.409Z,1003.97
2017-07-28T08:09:31.674Z,1003.91
2017-07-28T08:10:44.289Z,1003.93
2017-07-28T08:11:56.923Z,1003.9
2017-07-28T08:13:09.276Z,1003.9
2017-07-28T08:14:21.920Z,1003.92
2017-07-28T08:15:34.511Z,1003.98
2017-07-28T08:16:47.131Z,1003.97
2017-07-28T08:17:59.764Z,1003.99
2017-07-28T08:19:12.098Z,1003.96
2017-07-28T08:20:24.681Z,1003.96
2017-07-28T08:21:36.698Z,1003.94
2017-07-28T08:22:49.274Z,1003.91
2017-07-28T08:24:01.286Z,1004
2017-07-28T08:25:13.854Z,1004.02
2017-07-28T08:26:26.461Z,1003.99
2017-07-28T08:27:38.420Z,1003.96
2017-07-28T08:28:51.001Z,1004.05
2017-07-28T08:30:02.984Z,1004.05
2017-07-28T08:31:15.039Z,1003.98
2017-07-28T08:32:27.670Z,1004
2017-07-28T08:33:39.629Z,1004.06
2017-07-28T08:34:52.021Z,1004.14
2017-07-28T08:36:04.626Z,1004.03
2017-07-28T08:37:16.880Z,1004.03
2017-07-28T08:38:29.520Z,1004.12
2017-07-28T08:39:42.184Z,1004.09
2017-07-28T08:40:54.542Z,1004.07
2017-07-28T08:42:07.145Z,1004.06
2017-07-28T08:43:19.453Z,1004.05
2017-07-28T08:44:31.714Z,1004.05
2017-07-28T08:45:43.716Z,1004.09
2017-07-28T08:46:56.017Z,1004.13
2017-07-28T08:48:08.382Z,1004.05
2017-07-28T08:49:20.690Z,1004.08
2017-07-28T08:50:32.979Z,1004.13
2017-07-28T08:51:45.569Z,1004.07
2017-07-28T08:52:58.188Z,1004.1
2017-07-28T08:54:10.881Z,1004.09
2017-07-28T08:55:23.513Z,1004.13
2017-07-28T08:56:35.824Z,1004.13
2017-07-28T08:57:48.411Z,1004.13
2017-07-28T08:59:00.965Z,1004.19
2017-07-28T09:00:13.260Z,1004.17
2017-07-28T09:01:25.917Z,1004.3
2017-07-28T09:02:38.555Z,1004.19
2017-07-28T09:03:50.823Z,1004.22
2017-07-28T09:05:03.147Z,1004.18
2017-07-28T09:06:14.798Z,1004.21
2017-07-28T09:07:27.388Z,1004.21
2017-07-28T09:08:39.710Z,1004.14
2017-07-28T09:09:52.269Z,1004.15
2017-07-28T09:11:04.830Z,1004.27
2017-07-28T09:12:17.456Z,1004.3
2017-07-28T09:13:30.050Z,1004.24
2017-07-28T09:14:42.337Z,1004.34
2017-07-28T09:15:54.910Z,1004.27
2017-07-28T09:17:07.190Z,1004.42
2017-07-28T09:18:19.750Z,1004.47
2017-07-28T09:19:32.352Z,1004.37
2017-07-28T09:20:44.928Z,1004.47
2017-07-28T09:21:57.252Z,1004.63
2017-07-28T09:23:09.493Z,1004.58
2017-07-28T09:24:21.809Z,1004.69
2017-07-28T09:25:33.480Z,1004.68
2017-07-28T09:26:45.827Z,1004.64
2017-07-28T09:27:58.091Z,1004.62
2017-07-28T09:29:10.395Z,1004.64
2017-07-28T09:30:23.037Z,1004.7
2017-07-28T09:31:35.319Z,1004.64
2017-07-28T09:32:47.714Z,1004.57
2017-07-28T09:33:59.732Z,1004.53
2017-07-28T09:35:12.069Z,1004.56
2017-07-28T09:36:23.755Z,1004.66
2017-07-28T09:37:36.384Z,1004.62
2017-07-28T09:38:48.926Z,1004.56
2017-07-28T09:40:01.482Z,1004.58
2017-07-28T09:41:13.797Z,1004.72
2017-07-28T09:42:26.367Z,1004.62
2017-07-28T09:43:38.664Z,1004.56
2017-07-28T09:44:50.987Z,1004.62
2017-07-28T09:46:03.002Z,1004.56
2017-07-28T09:47:14.929Z,1004.63
2017-07-28T09:48:27.487Z,1004.52
2017-07-28T09:49:39.796Z,1004.6
2017-07-28T09:50:52.140Z,1004.66
2017-07-28T09:52:04.713Z,1004.72
2017-07-28T09:53:17.017Z,1004.59
2017-07-28T09:54:29.631Z,1004.55
2017-07-28T09:55:42.224Z,1004.59
2017-07-28T09:56:54.804Z,1004.63
2017-07-28T09:58:07.449Z,1004.55
2017-07-28T09:59:20.057Z,1004.44
2017-07-28T10:00:32.299Z,1004.47
2017-07-28T10:01:44.853Z,1004.47
2017-07-28T10:02:56.854Z,1004.41
2017-07-28T10:04:09.148Z,1004.41
2017-07-28T10:05:21.215Z,1004.47
2017-07-28T10:06:33.785Z,1004.41
2017-07-28T10:07:46.047Z,1004.44
2017-07-28T10:08:58.295Z,1004.46
2017-07-28T10:10:10.290Z,1004.7
2017-07-28T10:11:22.969Z,1004.7
2017-07-28T10:12:35.541Z,1004.68
2017-07-28T10:13:47.843Z,1004.58
2017-07-28T10:15:00.466Z,1004.49
2017-07-28T10:16:12.815Z,1004.49
2017-07-28T10:17:25.410Z,1004.57
2017-07-28T10:18:37.662Z,1004.55
2017-07-28T10:19:49.966Z,1004.48
2017-07-28T10:21:02.237Z,1004.47
2017-07-28T10:22:14.812Z,1004.41
2017-07-28T10:23:27.129Z,1004.41
2017-07-28T10:24:39.416Z,1004.52
2017-07-28T10:25:52.048Z,1004.49
2017-07-28T10:27:04.340Z,1004.49
2017-07-28T10:28:16.636Z,1004.47
2017-07-28T10:29:29.224Z,1004.38
2017-07-28T10:30:41.506Z,1004.44
2017-07-28T10:31:54.100Z,1004.45
2017-07-28T10:33:06.700Z,1004.54
2017-07-28T10:34:19.040Z,1004.63
2017-07-28T10:35:31.030Z,1004.67
2017-07-28T10:36:43.589Z,1004.58
2017-07-28T10:37:55.932Z,1004.66
2017-07-28T10:39:07.960Z,1004.77
2017-07-28T10:40:19.952Z,1004.65
2017-07-28T10:41:32.276Z,1004.75
2017-07-28T10:42:44.991Z,1004.77
2017-07-28T10:43:57.646Z,1004.73
2017-07-28T10:45:10.246Z,1004.76
2017-07-28T10:46:22.501Z,1004.78
2017-07-28T10:47:34.800Z,1004.95
2017-07-28T10:48:47.428Z,1005.18
2017-07-28T10:50:00.099Z,1005.19
2017-07-28T10:51:12.713Z,1004.94
2017-07-28T10:52:24.673Z,1004.96
2017-07-28T10:53:36.927Z,1004.9
2017-07-28T10:54:49.287Z,1004.87
2017-07-28T10:56:01.546Z,1004.91
2017-07-28T10:57:12.928Z,1004.99
2017-07-28T10:58:25.510Z,1005.07
2017-07-28T10:59:37.807Z,1005.03
2017-07-28T11:00:50.101Z,1005.11
2017-07-28T11:02:02.449Z,1005.12
2017-07-28T11:03:14.449Z,1005.11
2017-07-28T11:04:27.093Z,1005.18
2017-07-28T11:05:39.713Z,1005.08
2017-07-28T11:06:52.386Z,1005.08
2017-07-28T11:08:04.707Z,1005.24
2017-07-28T11:09:17.276Z,1005.33
2017-07-28T11:10:29.926Z,1005.33
2017-07-28T11:11:42.530Z,1005.38
2017-07-28T11:12:54.859Z,1005.31
2017-07-28T11:14:06.887Z,1005.22
2017-07-28T11:15:19.159Z,1005.18
2017-07-28T11:16:31.448Z,1005.21
2017-07-28T11:17:43.739Z,1005.24
2017-07-28T11:18:56.291Z,1005.26
2017-07-28T11:20:09.179Z,1005.31
2017-07-28T11:21:21.765Z,1005.27
2017-07-28T11:22:33.770Z,1005.32
2017-07-28T11:23:46.053Z,1005.38
2017-07-28T11:24:58.274Z,1005.35
2017-07-28T11:26:10.565Z,1005.37
2017-07-28T11:27:22.831Z,1005.42
2017-07-28T11:28:35.109Z,1005.38
2017-07-28T11:29:47.684Z,1005.38
2017-07-28T11:31:00.291Z,1005.34
2017-07-28T11:32:12.907Z,1005.32
2017-07-28T11:33:24.917Z,1005.39
2017-07-28T11:34:37.537Z,1005.3
2017-07-28T11:35:49.518Z,1005.29
2017-07-28T11:37:01.761Z,1005.26
2017-07-28T11:38:13.735Z,1005.29
2017-07-28T11:39:25.988Z,1005.37
2017-07-28T11:40:38.293Z,1005.36
2017-07-28T11:41:51.205Z,1005.48
2017-07-28T11:43:03.846Z,1005.58
2017-07-28T11:44:15.916Z,1005.53
2017-07-28T11:45:28.527Z,1005.65
2017-07-28T11:46:41.153Z,1005.57
2017-07-28T11:47:53.485Z,1005.55
2017-07-28T11:49:06.037Z,1005.47
2017-07-28T11:50:18.312Z,1005.44
2017-07-28T11:51:30.603Z,1005.49
2017-07-28T11:52:42.844Z,1005.49
2017-07-28T11:53:55.470Z,1005.47
2017-07-28T11:55:07.536Z,1005.41
2017-07-28T11:56:20.160Z,1005.41
2017-07-28T11:57:32.490Z,1005.38
2017-07-28T11:58:44.805Z,1005.41
2017-07-28T11:59:57.144Z,1005.46
2017-07-28T12:01:09.396Z,1005.45
2017-07-28T12:02:21.936Z,1005.37
2017-07-28T12:03:34.220Z,1005.3
2017-07-28T12:04:46.821Z,1005.27
2017-07-28T12:05:59.424Z,1005.24
2017-07-28T12:07:11.988Z,1005.14
2017-07-28T12:08:24.602Z,1005.16
2017-07-28T12:09:36.927Z,1005.19
2017-07-28T12:10:49.168Z,1005.15
2017-07-28T12:12:01.461Z,1005.18
2017-07-28T12:13:14.137Z,1005.29
2017-07-28T12:14:26.775Z,1005.31
2017-07-28T12:15:39.408Z,1005.32
2017-07-28T12:16:51.101Z,1005.33
2017-07-28T12:18:03.099Z,1005.22
2017-07-28T12:19:15.436Z,1005.27
2017-07-28T12:20:27.487Z,1005.36
2017-07-28T12:21:40.020Z,1005.32
2017-07-28T12:22:52.577Z,1005.34
2017-07-28T12:24:05.169Z,1005.37
2017-07-28T12:25:17.159Z,1005.32
2017-07-28T12:26:29.729Z,1005.31
2017-07-28T12:27:42.382Z,1005.29
2017-07-28T12:28:54.921Z,1005.28
2017-07-28T12:30:06.622Z,1005.24
2017-07-28T12:31:18.624Z,1005.17
2017-07-28T12:32:31.247Z,1005.25
2017-07-28T12:33:43.263Z,1005.26
2017-07-28T12:34:55.834Z,1005.31
2017-07-28T12:36:08.190Z,1005.31
2017-07-28T12:37:20.473Z,1005.32
2017-07-28T12:38:32.776Z,1005.28
2017-07-28T12:39:45.347Z,1005.33
2017-07-28T12:40:57.641Z,1005.28
2017-07-28T12:42:09.987Z,1005.33
2017-07-28T12:43:22.635Z,1005.24
2017-07-28T12:44:34.953Z,1005.29
2017-07-28T12:45:47.249Z,1005.31
2017-07-28T12:46:59.864Z,1005.3
2017-07-28T12:48:12.517Z,1005.33
2017-07-28T12:49:25.120Z,1005.33
2017-07-28T12:50:37.729Z,1005.39
2017-07-28T12:51:50.391Z,1005.45
2017-07-28T12:53:02.729Z,1005.5
2017-07-28T12:54:15.020Z,1005.56
2017-07-28T12:55:27.557Z,1005.64
2017-07-28T12:56:39.818Z,1005.65
2017-07-28T12:57:52.008Z,1005.6
2017-07-28T12:59:04.682Z,1005.57
2017-07-28T13:00:17.303Z,1005.6
2017-07-28T13:01:29.919Z,1005.7
2017-07-28T13:02:42.546Z,1005.83
2017-07-28T13:03:55.128Z,1005.87
2017-07-28T13:05:07.360Z,1005.76
2017-07-28T13:06:19.680Z,1005.79
2017-07-28T13:07:32.002Z,1005.66
2017-07-28T13:08:44.285Z,1005.57
2017-07-28T13:09:56.857Z,1005.43
2017-07-28T13:11:08.896Z,1005.39
2017-07-28T13:12:20.884Z,1005.42
2017-07-28T13:13:32.920Z,1005.37
2017-07-28T13:14:45.180Z,1005.41
2017-07-28T13:15:57.824Z,1005.47
2017-07-28T13:17:09.840Z,1005.46
2017-07-28T13:18:22.098Z,1005.4
2017-07-28T13:19:34.675Z,1005.35
2017-07-28T13:20:47.232Z,1005.45
2017-07-28T13:21:59.829Z,1005.41
2017-07-28T13:23:12.174Z,1005.45
2017-07-28T13:24:24.464Z,1005.57
2017-07-28T13:25:37.104Z,1005.59
2017-07-28T13:26:49.718Z,1005.66
2017-07-28T13:28:02.390Z,1005.63
2017-07-28T13:29:14.393Z,1005.6
2017-07-28T13:30:27.044Z,1005.57
2017-07-28T13:31:39.647Z,1005.39
2017-07-28T13:32:51.935Z,1005.35
2017-07-28T13:34:04.534Z,1005.29
2017-07-28T13:35:17.153Z,1005.3
2017-07-28T13:36:29.093Z,1005.23
2017-07-28T13:37:41.700Z,1005.26
2017-07-28T13:38:54.270Z,1005.31
2017-07-28T13:40:06.829Z,1005.32
2017-07-28T13:41:19.076Z,1005.43
2017-07-28T13:42:31.402Z,1005.38
2017-07-28T13:43:44.007Z,1005.43
2017-07-28T13:44:56.649Z,1005.52
2017-07-28T13:46:09.312Z,1005.46
2017-07-28T13:47:21.288Z,1005.45
2017-07-28T13:48:33.658Z,1005.37
2017-07-28T13:49:46.233Z,1005.33
2017-07-28T13:50:58.830Z,1005.35
2017-07-28T13:52:10.932Z,1005.28
2017-07-28T13:53:23.570Z,1005.28
2017-07-28T13:54:36.139Z,1005.23
2017-07-28T13:55:48.468Z,1005.24
2017-07-28T13:57:00.465Z,1005.22
2017-07-28T13:58:12.526Z,1005.25
2017-07-28T13:59:24.524Z,1005.26
2017-07-28T14:00:37.169Z,1005.22
2017-07-28T14:01:49.473Z,1005.16
2017-07-28T14:03:02.040Z,1005.24
2017-07-28T14:04:14.323Z,1005.2
2017-07-28T14:05:26.933Z,1005.24
2017-07-28T14:06:39.518Z,1005.23
2017-07-28T14:07:51.762Z,1005.25
2017-07-28T14:09:04.081Z,1005.18
2017-07-28T14:10:16.410Z,1005.34
2017-07-28T14:11:28.712Z,1005.29
2017-07-28T14:12:41.333Z,1005.27
2017-07-28T14:13:53.621Z,1005.25
2017-07-28T14:15:06.221Z,1005.29
2017-07-28T14:16:18.893Z,1005.29
2017-07-28T14:17:31.414Z,1005.34
2017-07-28T14:18:44.012Z,1005.36
2017-07-28T14:19:56.663Z,1005.4
2017-07-28T14:21:09.299Z,1005.37
2017-07-28T14:22:21.899Z,1005.29
2017-07-28T14:23:34.154Z,1005.2
2017-07-28T14:24:46.439Z,1005.14
2017-07-28T14:25:58.418Z,1005.23
2017-07-28T14:27:10.764Z,1005.3
2017-07-28T14:28:23.416Z,1005.25
2017-07-28T14:29:36.012Z,1005.24
2017-07-28T14:30:48.578Z,1005.13
2017-07-28T14:32:00.880Z,1005.26
2017-07-28T14:33:13.483Z,1005.35
2017-07-28T14:34:26.086Z,1005.24
2017-07-28T14:35:38.728Z,1005.2
2017-07-28T14:36:51.319Z,1005.19
2017-07-28T14:38:03.670Z,1005.2
2017-07-28T14:39:16.006Z,1005.2